createdAt,value
2019-03-05T00:00:24.549Z,8.67
2019-03-05T00:00:50.678Z,8.58
2019-03-05T00:01:16.819Z,8.66
2019-03-05T00:01:42.931Z,8.63
2019-03-05T00:02:09.072Z,8.63
2019-03-05T00:02:35.254Z,8.64
2019-03-05T00:03:01.308Z,8.66
2019-03-05T00:03:27.412Z,8.63
2019-03-05T00:03:53.518Z,8.61
2019-03-05T00:04:19.623Z,8.76
2019-03-05T00:04:45.726Z,8.74
2019-03-05T00:05:11.856Z,8.73
2019-03-05T00:05:38.056Z,8.74
2019-03-05T00:06:04.179Z,8.74
2019-03-05T00:06:30.322Z,8.61
2019-03-05T00:06:56.426Z,8.7
2019-03-05T00:07:22.557Z,8.69
2019-03-05T00:07:48.661Z,8.61
2019-03-05T00:08:14.761Z,8.63
2019-03-05T00:08:40.878Z,8.71
2019-03-05T00:09:06.980Z,8.73
2019-03-05T00:09:33.111Z,8.71
2019-03-05T00:09:59.222Z,8.71
2019-03-05T00:10:25.325Z,8.71
2019-03-05T00:10:51.441Z,8.71
2019-03-05T00:11:17.573Z,8.64
2019-03-05T00:11:43.673Z,8.63
2019-03-05T00:12:09.795Z,8.74
2019-03-05T00:12:35.894Z,8.71
2019-03-05T00:13:01.998Z,8.73
2019-03-05T00:13:28.106Z,8.74
2019-03-05T00:13:54.207Z,8.7
2019-03-05T00:14:20.314Z,8.67
2019-03-05T00:14:46.438Z,8.73
2019-03-05T00:15:12.574Z,8.76
2019-03-05T00:15:38.709Z,8.67
2019-03-05T00:16:04.822Z,8.71
2019-03-05T00:16:30.941Z,8.78
2019-03-05T00:16:57.051Z,8.7
2019-03-05T00:17:23.151Z,8.76
2019-03-05T00:17:49.256Z,8.78
2019-03-05T00:18:15.363Z,8.78
2019-03-05T00:18:41.475Z,8.73
2019-03-05T00:19:07.582Z,8.91
2019-03-05T00:19:33.690Z,8.78
2019-03-05T00:19:59.787Z,8.76
2019-03-05T00:20:25.894Z,8.84
2019-03-05T00:20:52.033Z,8.84
2019-03-05T00:21:18.162Z,8.85
2019-03-05T00:21:44.277Z,8.74
2019-03-05T00:22:10.380Z,8.84
2019-03-05T00:22:36.494Z,8.79
2019-03-05T00:23:02.601Z,8.73
2019-03-05T00:23:29.351Z,8.81
2019-03-05T00:23:55.464Z,8.76
2019-03-05T00:24:21.572Z,8.87
2019-03-05T00:24:47.724Z,8.91
2019-03-05T00:25:13.802Z,8.87
2019-03-05T00:25:39.908Z,8.87
2019-03-05T00:26:06.015Z,8.85
2019-03-05T00:26:32.118Z,8.88
2019-03-05T00:26:58.223Z,8.85
2019-03-05T00:27:24.334Z,8.81
2019-03-05T00:27:50.435Z,8.85
2019-03-05T00:28:16.575Z,8.82
2019-03-05T00:28:42.693Z,8.85
2019-03-05T00:29:08.797Z,8.82
2019-03-05T00:29:34.958Z,8.85
2019-03-05T00:30:01.069Z,8.82
2019-03-05T00:30:27.169Z,8.87
2019-03-05T00:30:53.277Z,8.84
2019-03-05T00:31:19.383Z,8.81
2019-03-05T00:31:45.490Z,8.85
2019-03-05T00:32:11.694Z,8.79
2019-03-05T00:32:37.753Z,8.88
2019-03-05T00:33:03.885Z,8.87
2019-03-05T00:33:32.630Z,8.87
2019-03-05T00:33:57.150Z,8.85
2019-03-05T00:34:23.251Z,8.85
2019-03-05T00:34:49.354Z,8.73
2019-03-05T00:35:15.466Z,8.85
2019-03-05T00:35:41.574Z,8.82
2019-03-05T00:36:07.680Z,8.81
2019-03-05T00:36:33.787Z,8.81
2019-03-05T00:36:59.888Z,8.85
2019-03-05T00:37:26.022Z,8.88
2019-03-05T00:37:52.131Z,8.84
2019-03-05T00:38:18.234Z,8.88
2019-03-05T00:38:44.363Z,8.85
2019-03-05T00:39:10.460Z,8.85
2019-03-05T00:39:36.593Z,8.91
2019-03-05T00:40:02.693Z,8.89
2019-03-05T00:40:28.801Z,8.81
2019-03-05T00:40:54.909Z,8.81
2019-03-05T00:41:21.008Z,8.87
2019-03-05T00:41:47.141Z,8.82
2019-03-05T00:42:13.249Z,8.82
2019-03-05T00:42:39.359Z,8.82
2019-03-05T00:43:05.528Z,8.84
2019-03-05T00:43:31.636Z,8.78
2019-03-05T00:43:57.735Z,8.91
2019-03-05T00:44:23.842Z,8.84
2019-03-05T00:44:49.947Z,8.81
2019-03-05T00:45:16.051Z,8.81
2019-03-05T00:45:42.161Z,8.79
2019-03-05T00:46:08.269Z,8.81
2019-03-05T00:46:34.372Z,8.74
2019-03-05T00:47:00.474Z,8.81
2019-03-05T00:47:26.591Z,8.74
2019-03-05T00:47:52.777Z,8.74
2019-03-05T00:48:18.887Z,8.76
2019-03-05T00:48:44.989Z,8.76
2019-03-05T00:49:11.126Z,8.76
2019-03-05T00:49:37.222Z,8.84
2019-03-05T00:50:03.341Z,8.78
2019-03-05T00:50:29.465Z,8.78
2019-03-05T00:50:55.572Z,8.79
2019-03-05T00:51:25.119Z,8.81
2019-03-05T00:51:49.764Z,8.85
2019-03-05T00:52:15.873Z,8.87
2019-03-05T00:52:41.978Z,8.88
2019-03-05T00:53:08.086Z,8.87
2019-03-05T00:53:34.186Z,8.79
2019-03-05T00:54:00.295Z,8.78
2019-03-05T00:54:26.397Z,8.73
2019-03-05T00:54:52.527Z,8.89
2019-03-05T00:55:18.664Z,8.81
2019-03-05T00:55:44.792Z,8.87
2019-03-05T00:56:10.980Z,8.85
2019-03-05T00:56:37.085Z,8.87
2019-03-05T00:57:03.223Z,8.84
2019-03-05T00:57:29.337Z,8.81
2019-03-05T00:57:55.467Z,8.89
2019-03-05T00:58:21.576Z,8.85
2019-03-05T00:58:47.684Z,8.82
2019-03-05T00:59:13.813Z,8.88
2019-03-05T00:59:39.917Z,8.87
2019-03-05T01:00:06.015Z,8.85
2019-03-05T01:00:32.122Z,8.85
2019-03-05T01:00:58.222Z,8.88
2019-03-05T01:01:24.329Z,8.82
2019-03-05T01:01:51.427Z,8.79
2019-03-05T01:02:17.529Z,8.79
2019-03-05T01:02:43.643Z,8.85
2019-03-05T01:03:09.745Z,8.87
2019-03-05T01:03:35.850Z,8.85
2019-03-05T01:04:01.958Z,8.85
2019-03-05T01:04:28.062Z,8.88
2019-03-05T01:04:54.163Z,8.84
2019-03-05T01:05:20.261Z,8.85
2019-03-05T01:05:46.378Z,8.87
2019-03-05T01:06:12.486Z,8.88
2019-03-05T01:06:38.629Z,8.82
2019-03-05T01:07:04.739Z,8.87
2019-03-05T01:07:30.841Z,8.88
2019-03-05T01:07:56.948Z,8.79
2019-03-05T01:08:24.041Z,8.81
2019-03-05T01:08:50.147Z,8.84
2019-03-05T01:09:16.254Z,8.81
2019-03-05T01:09:42.367Z,8.78
2019-03-05T01:10:08.497Z,8.76
2019-03-05T01:10:34.607Z,8.87
2019-03-05T01:11:00.712Z,8.89
2019-03-05T01:11:26.825Z,8.82
2019-03-05T01:11:52.924Z,8.89
2019-03-05T01:12:19.038Z,8.82
2019-03-05T01:12:45.143Z,8.78
2019-03-05T01:13:11.250Z,8.81
2019-03-05T01:13:37.353Z,8.74
2019-03-05T01:14:03.462Z,8.88
2019-03-05T01:14:29.565Z,8.82
2019-03-05T01:14:55.675Z,8.89
2019-03-05T01:15:21.774Z,8.85
2019-03-05T01:15:47.887Z,8.85
2019-03-05T01:16:13.988Z,8.84
2019-03-05T01:16:40.100Z,8.91
2019-03-05T01:17:06.203Z,8.84
2019-03-05T01:17:32.312Z,8.85
2019-03-05T01:17:58.419Z,8.88
2019-03-05T01:18:24.636Z,8.87
2019-03-05T01:18:50.737Z,8.82
2019-03-05T01:19:16.838Z,8.87
2019-03-05T01:19:42.948Z,8.84
2019-03-05T01:20:09.075Z,8.79
2019-03-05T01:20:35.210Z,8.81
2019-03-05T01:21:01.309Z,8.78
2019-03-05T01:21:27.427Z,8.84
2019-03-05T01:21:53.531Z,8.73
2019-03-05T01:22:19.637Z,8.81
2019-03-05T01:22:45.745Z,8.84
2019-03-05T01:23:11.851Z,8.84
2019-03-05T01:23:37.953Z,8.87
2019-03-05T01:24:04.060Z,8.91
2019-03-05T01:24:30.167Z,8.82
2019-03-05T01:24:56.273Z,8.87
2019-03-05T01:25:22.470Z,8.81
2019-03-05T01:25:48.524Z,8.79
2019-03-05T01:26:14.634Z,8.88
2019-03-05T01:26:40.745Z,8.87
2019-03-05T01:27:06.846Z,8.82
2019-03-05T01:27:32.953Z,8.81
2019-03-05T01:27:59.085Z,8.74
2019-03-05T01:28:25.187Z,8.76
2019-03-05T01:28:51.287Z,8.76
2019-03-05T01:29:17.402Z,8.81
2019-03-05T01:29:43.532Z,8.73
2019-03-05T01:30:09.639Z,8.81
2019-03-05T01:30:35.746Z,8.76
2019-03-05T01:31:01.856Z,8.78
2019-03-05T01:31:27.968Z,8.85
2019-03-05T01:31:54.097Z,8.87
2019-03-05T01:32:20.207Z,8.78
2019-03-05T01:32:46.307Z,8.82
2019-03-05T01:33:12.412Z,8.84
2019-03-05T01:33:38.524Z,8.85
2019-03-05T01:34:04.646Z,8.84
2019-03-05T01:34:30.762Z,8.81
2019-03-05T01:34:56.863Z,8.91
2019-03-05T01:35:22.975Z,8.88
2019-03-05T01:35:49.102Z,8.79
2019-03-05T01:36:15.237Z,8.81
2019-03-05T01:36:41.341Z,8.79
2019-03-05T01:37:07.510Z,8.85
2019-03-05T01:37:33.619Z,8.88
2019-03-05T01:37:59.722Z,8.84
2019-03-05T01:38:25.826Z,8.84
2019-03-05T01:38:51.938Z,8.84
2019-03-05T01:39:18.071Z,8.87
2019-03-05T01:39:44.207Z,8.82
2019-03-05T01:40:10.308Z,8.89
2019-03-05T01:40:36.420Z,8.87
2019-03-05T01:41:02.544Z,8.84
2019-03-05T01:41:28.652Z,8.85
2019-03-05T01:41:54.755Z,8.84
2019-03-05T01:42:20.859Z,8.85
2019-03-05T01:42:46.964Z,8.88
2019-03-05T01:43:13.069Z,8.79
2019-03-05T01:43:39.220Z,8.87
2019-03-05T01:44:05.323Z,8.91
2019-03-05T01:44:31.459Z,8.82
2019-03-05T01:44:57.561Z,8.85
2019-03-05T01:45:23.697Z,8.88
2019-03-05T01:45:49.805Z,8.84
2019-03-05T01:46:16.037Z,8.87
2019-03-05T01:46:42.150Z,8.87
2019-03-05T01:47:08.259Z,8.87
2019-03-05T01:47:34.364Z,8.87
2019-03-05T01:48:00.474Z,8.81
2019-03-05T01:48:26.573Z,8.88
2019-03-05T01:48:52.688Z,8.85
2019-03-05T01:49:18.791Z,8.87
2019-03-05T01:49:44.903Z,8.84
2019-03-05T01:50:11.009Z,8.85
2019-03-05T01:50:37.117Z,8.92
2019-03-05T01:51:03.216Z,8.88
2019-03-05T01:51:29.318Z,8.87
2019-03-05T01:51:55.435Z,8.78
2019-03-05T01:52:21.542Z,8.82
2019-03-05T01:52:47.651Z,8.78
2019-03-05T01:53:13.766Z,8.85
2019-03-05T01:53:39.868Z,8.81
2019-03-05T01:54:05.972Z,8.85
2019-03-05T01:54:32.083Z,8.84
2019-03-05T01:54:58.180Z,8.79
2019-03-05T01:55:24.318Z,8.84
2019-03-05T01:55:50.423Z,8.82
2019-03-05T01:56:16.536Z,8.84
2019-03-05T01:56:42.643Z,8.85
2019-03-05T01:57:08.744Z,8.85
2019-03-05T01:57:34.847Z,8.81
2019-03-05T01:58:01.021Z,8.87
2019-03-05T01:58:27.125Z,8.87
2019-03-05T01:58:53.238Z,8.85
2019-03-05T01:59:19.352Z,8.87
2019-03-05T01:59:45.465Z,8.85
2019-03-05T02:00:11.878Z,8.82
2019-03-05T02:00:38.062Z,8.84
2019-03-05T02:01:04.166Z,8.88
2019-03-05T02:01:30.278Z,8.87
2019-03-05T02:01:56.393Z,8.88
2019-03-05T02:02:22.493Z,8.74
2019-03-05T02:02:48.609Z,8.76
2019-03-05T02:03:14.713Z,8.76
2019-03-05T02:03:40.847Z,8.81
2019-03-05T02:04:06.979Z,8.85
2019-03-05T02:04:33.109Z,8.88
2019-03-05T02:04:59.249Z,8.79
2019-03-05T02:05:25.357Z,8.73
2019-03-05T02:05:51.458Z,8.76
2019-03-05T02:06:17.566Z,8.85
2019-03-05T02:06:43.654Z,8.85
2019-03-05T02:07:09.764Z,8.74
2019-03-05T02:07:35.875Z,8.78
2019-03-05T02:08:01.986Z,8.73
2019-03-05T02:08:28.088Z,8.81
2019-03-05T02:08:54.191Z,8.78
2019-03-05T02:09:20.310Z,8.79
2019-03-05T02:09:46.407Z,8.78
2019-03-05T02:10:12.516Z,8.78
2019-03-05T02:10:38.648Z,8.79
2019-03-05T02:11:04.783Z,8.76
2019-03-05T02:11:30.891Z,8.79
2019-03-05T02:11:56.999Z,8.79
2019-03-05T02:12:23.104Z,8.73
2019-03-05T02:12:49.205Z,8.84
2019-03-05T02:13:15.316Z,8.82
2019-03-05T02:13:41.418Z,8.79
2019-03-05T02:14:07.523Z,8.85
2019-03-05T02:14:33.632Z,8.81
2019-03-05T02:14:59.736Z,8.87
2019-03-05T02:15:25.845Z,8.85
2019-03-05T02:15:51.979Z,8.81
2019-03-05T02:16:18.109Z,8.76
2019-03-05T02:16:44.218Z,8.82
2019-03-05T02:17:10.324Z,8.78
2019-03-05T02:17:36.425Z,8.78
2019-03-05T02:18:02.539Z,8.84
2019-03-05T02:18:28.638Z,8.82
2019-03-05T02:18:54.746Z,8.84
2019-03-05T02:19:20.846Z,8.92
2019-03-05T02:19:46.957Z,8.81
2019-03-05T02:20:13.057Z,8.78
2019-03-05T02:20:39.193Z,8.85
2019-03-05T02:21:05.321Z,8.89
2019-03-05T02:21:31.422Z,8.74
2019-03-05T02:21:57.524Z,8.81
2019-03-05T02:22:23.635Z,8.74
2019-03-05T02:22:49.745Z,8.71
2019-03-05T02:23:15.849Z,8.73
2019-03-05T02:23:41.953Z,8.71
2019-03-05T02:24:08.062Z,8.69
2019-03-05T02:24:34.167Z,8.7
2019-03-05T02:25:00.398Z,8.74
2019-03-05T02:25:26.449Z,8.76
2019-03-05T02:25:52.560Z,8.76
2019-03-05T02:26:18.675Z,8.79
2019-03-05T02:26:44.772Z,8.76
2019-03-05T02:27:10.881Z,8.74
2019-03-05T02:27:36.983Z,8.74
2019-03-05T02:28:03.125Z,8.84
2019-03-05T02:28:29.358Z,8.87
2019-03-05T02:28:55.467Z,8.81
2019-03-05T02:29:21.567Z,8.85
2019-03-05T02:29:47.683Z,8.85
2019-03-05T02:30:13.817Z,8.85
2019-03-05T02:30:39.956Z,8.88
2019-03-05T02:31:06.124Z,8.82
2019-03-05T02:31:32.267Z,8.84
2019-03-05T02:31:58.499Z,8.89
2019-03-05T02:32:24.630Z,8.85
2019-03-05T02:32:50.741Z,8.82
2019-03-05T02:33:16.841Z,8.85
2019-03-05T02:33:42.982Z,8.85
2019-03-05T02:34:09.105Z,8.88
2019-03-05T02:34:35.237Z,8.85
2019-03-05T02:35:01.373Z,8.85
2019-03-05T02:35:27.485Z,8.87
2019-03-05T02:35:53.591Z,8.94
2019-03-05T02:36:19.712Z,8.84
2019-03-05T02:36:45.886Z,8.81
2019-03-05T02:37:11.969Z,8.84
2019-03-05T02:37:38.081Z,8.87
2019-03-05T02:38:05.580Z,8.94
2019-03-05T02:38:31.344Z,8.91
2019-03-05T02:38:57.525Z,8.92
2019-03-05T02:39:23.663Z,8.91
2019-03-05T02:39:49.789Z,8.94
2019-03-05T02:40:16.164Z,8.82
2019-03-05T02:40:42.291Z,8.85
2019-03-05T02:41:08.415Z,8.91
2019-03-05T02:41:34.538Z,8.87
2019-03-05T02:42:00.634Z,8.94
2019-03-05T02:42:26.766Z,8.85
2019-03-05T02:42:52.926Z,8.88
2019-03-05T02:43:19.027Z,8.85
2019-03-05T02:43:45.254Z,8.87
2019-03-05T02:44:11.387Z,8.88
2019-03-05T02:44:37.489Z,8.81
2019-03-05T02:45:03.595Z,8.85
2019-03-05T02:45:31.511Z,8.85
2019-03-05T02:45:56.824Z,8.85
2019-03-05T02:46:22.966Z,8.79
2019-03-05T02:46:49.078Z,8.84
2019-03-05T02:47:15.187Z,8.74
2019-03-05T02:47:41.293Z,8.79
2019-03-05T02:48:07.394Z,8.79
2019-03-05T02:48:33.499Z,8.84
2019-03-05T02:48:59.640Z,8.82
2019-03-05T02:49:25.741Z,8.88
2019-03-05T02:49:51.843Z,8.82
2019-03-05T02:50:17.993Z,8.85
2019-03-05T02:50:44.093Z,8.87
2019-03-05T02:51:10.301Z,8.84
2019-03-05T02:51:36.427Z,8.81
2019-03-05T02:52:02.532Z,8.78
2019-03-05T02:52:28.636Z,8.87
2019-03-05T02:52:54.743Z,8.92
2019-03-05T02:53:21.400Z,8.78
2019-03-05T02:53:47.525Z,8.79
2019-03-05T02:54:13.649Z,8.78
2019-03-05T02:54:39.769Z,8.87
2019-03-05T02:55:05.931Z,8.84
2019-03-05T02:55:32.038Z,8.85
2019-03-05T02:55:58.174Z,8.82
2019-03-05T02:56:24.283Z,8.87
2019-03-05T02:56:50.421Z,8.88
2019-03-05T02:57:16.554Z,8.82
2019-03-05T02:57:42.651Z,8.89
2019-03-05T02:58:08.764Z,8.82
2019-03-05T02:58:34.869Z,8.91
2019-03-05T02:59:01.002Z,8.88
2019-03-05T02:59:27.106Z,8.84
2019-03-05T02:59:53.218Z,8.81
2019-03-05T03:00:19.317Z,8.79
2019-03-05T03:00:45.424Z,8.88
2019-03-05T03:01:11.538Z,8.88
2019-03-05T03:01:37.650Z,8.79
2019-03-05T03:02:03.803Z,8.85
2019-03-05T03:02:29.901Z,8.92
2019-03-05T03:02:56.029Z,8.97
2019-03-05T03:03:22.191Z,8.87
2019-03-05T03:03:48.297Z,8.92
2019-03-05T03:04:14.402Z,8.84
2019-03-05T03:04:40.535Z,8.82
2019-03-05T03:05:06.674Z,8.81
2019-03-05T03:05:32.828Z,8.85
2019-03-05T03:05:58.939Z,8.76
2019-03-05T03:06:25.071Z,8.76
2019-03-05T03:06:51.178Z,8.84
2019-03-05T03:07:17.274Z,8.73
2019-03-05T03:07:43.434Z,8.81
2019-03-05T03:08:09.611Z,8.73
2019-03-05T03:08:35.706Z,8.74
2019-03-05T03:09:01.874Z,8.71
2019-03-05T03:09:28.043Z,8.71
2019-03-05T03:09:54.173Z,8.71
2019-03-05T03:10:20.291Z,8.71
2019-03-05T03:10:46.397Z,8.64
2019-03-05T03:11:12.550Z,8.67
2019-03-05T03:11:38.644Z,8.6
2019-03-05T03:12:04.767Z,8.66
2019-03-05T03:12:30.876Z,8.58
2019-03-05T03:12:56.973Z,8.63
2019-03-05T03:13:23.079Z,8.63
2019-03-05T03:13:49.213Z,8.63
2019-03-05T03:14:15.316Z,8.61
2019-03-05T03:14:41.424Z,8.63
2019-03-05T03:15:07.529Z,8.6
2019-03-05T03:15:33.667Z,8.66
2019-03-05T03:15:59.771Z,8.66
2019-03-05T03:16:25.903Z,8.6
2019-03-05T03:16:52.037Z,8.67
2019-03-05T03:17:18.176Z,8.63
2019-03-05T03:17:44.291Z,8.64
2019-03-05T03:18:10.395Z,8.63
2019-03-05T03:18:36.559Z,8.6
2019-03-05T03:19:02.700Z,8.51
2019-03-05T03:19:28.825Z,8.42
2019-03-05T03:19:54.970Z,8.51
2019-03-05T03:20:21.504Z,8.42
2019-03-05T03:20:47.664Z,8.51
2019-03-05T03:21:13.807Z,8.37
2019-03-05T03:21:39.937Z,8.38
2019-03-05T03:22:06.052Z,8.33
2019-03-05T03:22:32.145Z,8.38
2019-03-05T03:22:58.270Z,8.33
2019-03-05T03:23:24.386Z,8.3
2019-03-05T03:23:50.530Z,8.31
2019-03-05T03:24:16.635Z,8.28
2019-03-05T03:24:42.746Z,8.33
2019-03-05T03:25:08.878Z,8.28
2019-03-05T03:25:35.012Z,8.18
2019-03-05T03:26:01.109Z,8.36
2019-03-05T03:26:27.209Z,8.28
2019-03-05T03:26:53.354Z,8.27
2019-03-05T03:27:19.454Z,8.28
2019-03-05T03:27:45.592Z,8.37
2019-03-05T03:28:11.723Z,8.33
2019-03-05T03:28:37.823Z,8.28
2019-03-05T03:29:03.989Z,8.28
2019-03-05T03:29:30.171Z,8.31
2019-03-05T03:29:56.275Z,8.28
2019-03-05T03:30:22.412Z,8.33
2019-03-05T03:30:48.540Z,8.37
2019-03-05T03:31:14.648Z,8.33
2019-03-05T03:31:40.821Z,8.33
2019-03-05T03:32:07.007Z,8.37
2019-03-05T03:32:33.224Z,8.31
2019-03-05T03:32:59.382Z,8.28
2019-03-05T03:33:25.560Z,8.3
2019-03-05T03:33:51.750Z,8.3
2019-03-05T03:34:17.910Z,8.31
2019-03-05T03:34:44.073Z,8.28
2019-03-05T03:35:10.173Z,8.15
2019-03-05T03:35:36.310Z,8.16
2019-03-05T03:36:02.414Z,8.09
2019-03-05T03:36:28.519Z,8.08
2019-03-05T03:36:54.633Z,8.06
2019-03-05T03:37:20.763Z,8
2019-03-05T03:37:46.867Z,8.01
2019-03-05T03:38:13.010Z,7.98
2019-03-05T03:38:39.137Z,7.93
2019-03-05T03:39:05.242Z,8.01
2019-03-05T03:39:31.373Z,7.9
2019-03-05T03:39:57.517Z,7.93
2019-03-05T03:40:24.673Z,7.94
2019-03-05T03:40:50.734Z,7.93
2019-03-05T03:41:16.867Z,7.97
2019-03-05T03:41:42.976Z,7.94
2019-03-05T03:42:09.084Z,7.95
2019-03-05T03:42:35.193Z,7.87
2019-03-05T03:43:01.296Z,7.88
2019-03-05T03:43:27.427Z,7.83
2019-03-05T03:43:53.531Z,7.85
2019-03-05T03:44:19.640Z,7.8
2019-03-05T03:44:45.773Z,7.75
2019-03-05T03:45:11.877Z,7.9
2019-03-05T03:45:38.011Z,7.77
2019-03-05T03:46:04.139Z,7.82
2019-03-05T03:46:30.273Z,7.82
2019-03-05T03:46:56.402Z,7.79
2019-03-05T03:47:22.513Z,7.79
2019-03-05T03:47:48.622Z,7.79
2019-03-05T03:48:14.769Z,7.76
2019-03-05T03:48:40.876Z,7.67
2019-03-05T03:49:06.980Z,7.67
2019-03-05T03:49:33.147Z,7.67
2019-03-05T03:49:59.253Z,7.67
2019-03-05T03:50:25.395Z,7.67
2019-03-05T03:50:51.482Z,7.7
2019-03-05T03:51:17.628Z,7.67
2019-03-05T03:51:43.718Z,7.66
2019-03-05T03:52:10.811Z,7.66
2019-03-05T03:52:36.906Z,7.63
2019-03-05T03:53:03.012Z,7.61
2019-03-05T03:53:29.151Z,7.56
2019-03-05T03:53:55.257Z,7.5
2019-03-05T03:54:21.363Z,7.54
2019-03-05T03:54:47.469Z,7.53
2019-03-05T03:55:13.576Z,7.5
2019-03-05T03:55:39.767Z,7.4
2019-03-05T03:56:05.899Z,7.42
2019-03-05T03:56:32.036Z,7.4
2019-03-05T03:56:58.201Z,7.4
2019-03-05T03:57:24.340Z,7.4
2019-03-05T03:57:50.468Z,7.38
2019-03-05T03:58:16.576Z,7.4
2019-03-05T03:58:42.673Z,7.4
2019-03-05T03:59:08.812Z,7.45
2019-03-05T03:59:34.921Z,7.5
2019-03-05T04:00:01.024Z,7.4
2019-03-05T04:00:27.186Z,7.42
2019-03-05T04:00:53.340Z,7.38
2019-03-05T04:01:20.436Z,7.38
2019-03-05T04:01:46.568Z,7.4
2019-03-05T04:02:12.736Z,7.39
2019-03-05T04:02:38.837Z,7.36
2019-03-05T04:03:04.943Z,7.29
2019-03-05T04:03:31.050Z,7.31
2019-03-05T04:03:57.150Z,7.21
2019-03-05T04:04:23.299Z,7.31
2019-03-05T04:04:49.418Z,7.24
2019-03-05T04:05:15.522Z,7.21
2019-03-05T04:05:41.708Z,7.2
2019-03-05T04:06:07.813Z,7.15
2019-03-05T04:06:33.974Z,7.17
2019-03-05T04:07:00.077Z,7.28
2019-03-05T04:07:26.244Z,7.18
2019-03-05T04:07:52.361Z,7.24
2019-03-05T04:08:19.451Z,7.23
2019-03-05T04:08:45.556Z,7.25
2019-03-05T04:09:11.691Z,7.25
2019-03-05T04:09:37.795Z,7.25
2019-03-05T04:10:03.897Z,7.25
2019-03-05T04:10:30.088Z,7.28
2019-03-05T04:10:56.261Z,7.28
2019-03-05T04:11:22.380Z,7.24
2019-03-05T04:11:48.500Z,7.28
2019-03-05T04:12:14.671Z,7.28
2019-03-05T04:12:40.782Z,7.32
2019-03-05T04:13:07.028Z,7.24
2019-03-05T04:13:33.155Z,7.35
2019-03-05T04:13:59.788Z,7.39
2019-03-05T04:14:25.982Z,7.39
2019-03-05T04:14:52.099Z,7.38
2019-03-05T04:15:18.208Z,7.4
2019-03-05T04:15:44.364Z,7.42
2019-03-05T04:16:10.468Z,7.39
2019-03-05T04:16:36.571Z,7.39
2019-03-05T04:17:02.709Z,7.31
2019-03-05T04:17:28.860Z,7.31
2019-03-05T04:17:54.979Z,7.36
2019-03-05T04:18:21.073Z,7.39
2019-03-05T04:18:47.181Z,7.29
2019-03-05T04:19:13.398Z,7.39
2019-03-05T04:19:39.507Z,7.32
2019-03-05T04:20:05.616Z,7.29
2019-03-05T04:20:31.815Z,7.32
2019-03-05T04:20:57.950Z,7.35
2019-03-05T04:21:25.050Z,7.42
2019-03-05T04:21:51.161Z,7.32
2019-03-05T04:22:17.337Z,7.31
2019-03-05T04:22:43.438Z,7.25
2019-03-05T04:23:09.547Z,7.28
2019-03-05T04:23:35.678Z,7.25
2019-03-05T04:24:01.806Z,7.17
2019-03-05T04:24:27.926Z,7.25
2019-03-05T04:24:54.036Z,7.28
2019-03-05T04:25:20.145Z,7.33
2019-03-05T04:25:46.252Z,7.29
2019-03-05T04:26:12.390Z,7.24
2019-03-05T04:26:38.529Z,7.24
2019-03-05T04:27:04.658Z,7.29
2019-03-05T04:27:30.791Z,7.31
2019-03-05T04:27:56.897Z,7.35
2019-03-05T04:28:23.059Z,7.29
2019-03-05T04:28:49.162Z,7.47
2019-03-05T04:29:15.263Z,7.4
2019-03-05T04:29:41.372Z,7.4
2019-03-05T04:30:07.505Z,7.47
2019-03-05T04:30:33.612Z,7.36
2019-03-05T04:30:59.721Z,7.39
2019-03-05T04:31:25.822Z,7.39
2019-03-05T04:31:51.926Z,7.48
2019-03-05T04:32:18.061Z,7.43
2019-03-05T04:32:44.988Z,7.43
2019-03-05T04:33:11.127Z,7.45
2019-03-05T04:33:37.260Z,7.42
2019-03-05T04:34:03.398Z,7.39
2019-03-05T04:34:29.520Z,7.4
2019-03-05T04:34:55.624Z,7.42
2019-03-05T04:35:21.735Z,7.45
2019-03-05T04:35:47.836Z,7.48
2019-03-05T04:36:13.983Z,7.58
2019-03-05T04:36:40.085Z,7.53
2019-03-05T04:37:06.192Z,7.54
2019-03-05T04:37:32.295Z,7.56
2019-03-05T04:37:58.402Z,7.56
2019-03-05T04:38:24.511Z,7.54
2019-03-05T04:38:50.607Z,7.56
2019-03-05T04:39:16.715Z,7.63
2019-03-05T04:39:42.854Z,7.6
2019-03-05T04:40:08.993Z,7.66
2019-03-05T04:40:35.097Z,7.66
2019-03-05T04:41:01.227Z,7.66
2019-03-05T04:41:27.338Z,7.66
2019-03-05T04:41:53.438Z,7.67
2019-03-05T04:42:19.542Z,7.6
2019-03-05T04:42:45.653Z,7.66
2019-03-05T04:43:11.750Z,7.63
2019-03-05T04:43:37.862Z,7.61
2019-03-05T04:44:03.963Z,7.72
2019-03-05T04:44:30.075Z,7.6
2019-03-05T04:44:56.200Z,7.66
2019-03-05T04:45:22.312Z,7.7
2019-03-05T04:45:48.421Z,7.7
2019-03-05T04:46:14.520Z,7.67
2019-03-05T04:46:40.620Z,7.73
2019-03-05T04:47:06.730Z,7.7
2019-03-05T04:47:32.835Z,7.67
2019-03-05T04:47:58.944Z,7.72
2019-03-05T04:48:25.075Z,7.7
2019-03-05T04:48:51.181Z,7.67
2019-03-05T04:49:17.282Z,7.72
2019-03-05T04:49:43.394Z,7.7
2019-03-05T04:50:09.500Z,7.73
2019-03-05T04:50:35.606Z,7.69
2019-03-05T04:51:01.710Z,7.63
2019-03-05T04:51:27.815Z,7.7
2019-03-05T04:51:53.919Z,7.76
2019-03-05T04:52:20.028Z,7.7
2019-03-05T04:52:46.136Z,7.76
2019-03-05T04:53:12.277Z,7.79
2019-03-05T04:53:38.389Z,7.82
2019-03-05T04:54:04.491Z,7.82
2019-03-05T04:54:30.598Z,7.82
2019-03-05T04:54:56.696Z,7.79
2019-03-05T04:55:22.803Z,7.79
2019-03-05T04:55:48.910Z,7.69
2019-03-05T04:56:15.047Z,7.73
2019-03-05T04:56:42.141Z,7.69
2019-03-05T04:57:08.256Z,7.75
2019-03-05T04:57:34.412Z,7.69
2019-03-05T04:58:00.515Z,7.73
2019-03-05T04:58:26.646Z,7.69
2019-03-05T04:58:52.753Z,7.66
2019-03-05T04:59:18.857Z,7.7
2019-03-05T04:59:44.966Z,7.72
2019-03-05T05:00:11.102Z,7.67
2019-03-05T05:00:37.214Z,7.7
2019-03-05T05:01:03.372Z,7.69
2019-03-05T05:01:29.473Z,7.7
2019-03-05T05:01:55.584Z,7.73
2019-03-05T05:02:21.686Z,7.72
2019-03-05T05:02:47.804Z,7.73
2019-03-05T05:03:14.210Z,7.7
2019-03-05T05:03:40.320Z,7.69
2019-03-05T05:04:06.420Z,7.67
2019-03-05T05:04:32.529Z,7.63
2019-03-05T05:04:58.635Z,7.61
2019-03-05T05:05:24.737Z,7.67
2019-03-05T05:05:50.852Z,7.58
2019-03-05T05:06:16.951Z,7.56
2019-03-05T05:06:43.056Z,7.61
2019-03-05T05:07:09.167Z,7.58
2019-03-05T05:07:35.267Z,7.66
2019-03-05T05:08:01.382Z,7.66
2019-03-05T05:08:27.523Z,7.66
2019-03-05T05:08:53.622Z,7.69
2019-03-05T05:09:19.726Z,7.72
2019-03-05T05:09:46.822Z,7.61
2019-03-05T05:10:12.928Z,7.72
2019-03-05T05:10:39.034Z,7.61
2019-03-05T05:11:05.141Z,7.57
2019-03-05T05:11:31.249Z,7.57
2019-03-05T05:11:57.351Z,7.66
2019-03-05T05:12:23.478Z,7.72
2019-03-05T05:12:49.616Z,7.7
2019-03-05T05:13:15.717Z,7.69
2019-03-05T05:13:41.819Z,7.67
2019-03-05T05:14:07.927Z,7.72
2019-03-05T05:14:34.031Z,7.75
2019-03-05T05:15:00.323Z,7.63
2019-03-05T05:15:26.290Z,7.66
2019-03-05T05:15:52.392Z,7.67
2019-03-05T05:16:18.522Z,7.69
2019-03-05T05:16:44.627Z,7.69
2019-03-05T05:17:10.765Z,7.75
2019-03-05T05:17:36.848Z,7.75
2019-03-05T05:18:02.956Z,7.72
2019-03-05T05:18:29.062Z,7.7
2019-03-05T05:18:55.170Z,7.7
2019-03-05T05:19:21.303Z,7.69
2019-03-05T05:19:48.345Z,7.69
2019-03-05T05:20:14.504Z,7.77
2019-03-05T05:20:40.561Z,7.7
2019-03-05T05:21:06.668Z,7.72
2019-03-05T05:21:32.778Z,7.67
2019-03-05T05:21:58.887Z,7.69
2019-03-05T05:22:24.987Z,7.66
2019-03-05T05:22:51.125Z,7.66
2019-03-05T05:23:17.313Z,7.67
2019-03-05T05:23:43.370Z,7.57
2019-03-05T05:24:09.476Z,7.6
2019-03-05T05:24:35.582Z,7.63
2019-03-05T05:25:01.715Z,7.58
2019-03-05T05:25:27.821Z,7.76
2019-03-05T05:25:53.916Z,7.69
2019-03-05T05:26:20.028Z,7.63
2019-03-05T05:26:46.132Z,7.7
2019-03-05T05:27:12.234Z,7.63
2019-03-05T05:27:38.334Z,7.66
2019-03-05T05:28:04.447Z,7.69
2019-03-05T05:28:30.545Z,7.67
2019-03-05T05:28:56.657Z,7.7
2019-03-05T05:29:22.760Z,7.67
2019-03-05T05:29:48.869Z,7.69
2019-03-05T05:30:14.967Z,7.69
2019-03-05T05:30:41.074Z,7.69
2019-03-05T05:31:07.218Z,7.72
2019-03-05T05:31:33.320Z,7.69
2019-03-05T05:31:59.421Z,7.7
2019-03-05T05:32:25.529Z,7.69
2019-03-05T05:32:51.635Z,7.72
2019-03-05T05:33:17.746Z,7.83
2019-03-05T05:33:43.852Z,7.79
2019-03-05T05:34:09.954Z,7.69
2019-03-05T05:34:36.058Z,7.82
2019-03-05T05:35:02.168Z,7.67
2019-03-05T05:35:28.296Z,7.83
2019-03-05T05:35:54.429Z,7.72
2019-03-05T05:36:20.528Z,7.76
2019-03-05T05:36:46.639Z,7.83
2019-03-05T05:37:12.740Z,7.75
2019-03-05T05:37:38.873Z,7.69
2019-03-05T05:38:05.004Z,7.72
2019-03-05T05:38:31.144Z,7.7
2019-03-05T05:38:57.244Z,7.67
2019-03-05T05:39:23.354Z,7.69
2019-03-05T05:39:49.459Z,7.72
2019-03-05T05:40:15.584Z,7.72
2019-03-05T05:40:41.694Z,7.76
2019-03-05T05:41:07.796Z,7.73
2019-03-05T05:41:33.904Z,7.7
2019-03-05T05:42:00.009Z,7.69
2019-03-05T05:42:26.114Z,7.73
2019-03-05T05:42:52.222Z,7.73
2019-03-05T05:43:18.333Z,7.72
2019-03-05T05:43:44.434Z,7.69
2019-03-05T05:44:10.533Z,7.72
2019-03-05T05:44:36.671Z,7.7
2019-03-05T05:45:02.773Z,7.61
2019-03-05T05:45:29.819Z,7.61
2019-03-05T05:45:55.928Z,7.6
2019-03-05T05:46:22.027Z,7.7
2019-03-05T05:46:48.133Z,7.76
2019-03-05T05:47:14.241Z,7.69
2019-03-05T05:47:40.345Z,7.66
2019-03-05T05:48:06.457Z,7.63
2019-03-05T05:48:32.591Z,7.7
2019-03-05T05:48:58.695Z,7.6